createdAt,value
2023-04-21T00:02:46.623Z,51.42
2023-04-21T00:06:48.187Z,51.47
2023-04-21T00:10:49.950Z,50.63
2023-04-21T00:14:51.339Z,50.67
2023-04-21T00:18:52.883Z,51.25
2023-04-21T00:22:55.625Z,51.93
2023-04-21T00:26:57.204Z,49.65
2023-04-21T00:30:58.634Z,49.08
2023-04-21T00:35:00.146Z,50.49
2023-04-21T00:39:01.666Z,50.02
2023-04-21T00:43:06.640Z,50.10
2023-04-21T00:47:08.162Z,52.28
2023-04-21T00:51:09.597Z,50.17
2023-04-21T00:55:11.391Z,51.22
2023-04-21T00:59:12.840Z,50.78
2023-04-21T01:03:14.501Z,50.88
2023-04-21T01:07:16.103Z,51.10
2023-04-21T01:11:17.454Z,48.58
2023-04-21T01:15:18.882Z,48.70
2023-04-21T01:19:20.710Z,49.73
2023-04-21T01:23:22.319Z,49.11
2023-04-21T01:27:23.693Z,49.66
2023-04-21T01:31:25.242Z,49.75
2023-04-21T01:35:26.627Z,50.62
2023-04-21T01:39:28.018Z,49.36
2023-04-21T01:43:29.434Z,49.00
2023-04-21T01:47:31.017Z,48.97
2023-04-21T01:51:32.491Z,48.54
2023-04-21T01:55:34.022Z,47.62
2023-04-21T01:59:35.348Z,47.49
2023-04-21T02:03:36.871Z,47.98
2023-04-21T02:07:38.368Z,47.49
2023-04-21T02:11:39.761Z,47.43
2023-04-21T02:15:41.690Z,47.38
2023-04-21T02:19:43.264Z,46.59
2023-04-21T02:23:44.618Z,46.38
2023-04-21T02:27:45.937Z,47.02
2023-04-21T02:31:57.732Z,46.64
2023-04-21T02:36:03.247Z,45.70
2023-04-21T02:40:06.493Z,46.12
2023-04-21T02:44:07.831Z,47.37
2023-04-21T02:48:09.633Z,46.36
2023-04-21T02:52:11.074Z,46.91
2023-04-21T02:56:12.584Z,46.17
2023-04-21T03:00:14.481Z,46.31
2023-04-21T03:04:15.976Z,46.44
2023-04-21T03:08:17.362Z,46.52
2023-04-21T03:12:18.657Z,46.74
2023-04-21T03:16:20.298Z,47.23
2023-04-21T03:20:21.941Z,46.58
2023-04-21T03:24:23.400Z,46.87
2023-04-21T03:28:24.839Z,46.51
2023-04-21T03:32:26.320Z,46.58
2023-04-21T03:36:27.668Z,46.56
2023-04-21T03:40:29.012Z,46.71
2023-04-21T03:44:30.668Z,46.99
2023-04-21T03:48:32.155Z,46.82
2023-04-21T03:52:33.538Z,47.21
2023-04-21T03:56:34.847Z,46.70
2023-04-21T04:00:36.273Z,47.38
2023-04-21T04:04:37.841Z,46.73
2023-04-21T04:08:39.404Z,46.78
2023-04-21T04:12:40.793Z,46.88
2023-04-21T04:16:47.114Z,46.83
2023-04-21T04:20:48.558Z,47.40
2023-04-21T04:24:49.890Z,47.05
2023-04-21T04:28:53.092Z,47.22
2023-04-21T04:32:54.987Z,46.62
2023-04-21T04:36:57.336Z,46.81
2023-04-21T04:40:58.810Z,46.85
2023-04-21T04:45:01.782Z,47.05
2023-04-21T04:49:03.581Z,47.12
2023-04-21T04:53:04.945Z,46.84
2023-04-21T04:57:06.253Z,46.60
2023-04-21T05:01:14.557Z,46.80
2023-04-21T05:05:16.077Z,46.75
2023-04-21T05:09:17.415Z,46.36
2023-04-21T05:13:18.976Z,46.32
2023-04-21T05:17:20.425Z,46.46
2023-04-21T05:21:29.017Z,46.36
2023-04-21T05:25:30.719Z,46.02
2023-04-21T05:29:36.861Z,46.77
2023-04-21T05:33:38.247Z,45.63
2023-04-21T05:37:39.612Z,46.04
2023-04-21T05:41:42.041Z,45.33
2023-04-21T05:45:43.442Z,45.76
2023-04-21T05:49:50.096Z,45.64
2023-04-21T05:53:51.698Z,45.68
2023-04-21T05:57:53.060Z,45.93
2023-04-21T06:01:54.500Z,45.15
2023-04-21T06:05:56.416Z,45.28
2023-04-21T06:09:58.070Z,44.75
2023-04-21T06:13:59.868Z,44.48
2023-04-21T06:18:01.413Z,43.62
2023-04-21T06:22:02.918Z,44.01
2023-04-21T06:26:06.722Z,42.70
2023-04-21T06:30:08.655Z,43.26
2023-04-21T06:34:10.021Z,42.51
2023-04-21T06:38:11.364Z,42.15
2023-04-21T06:42:12.837Z,42.27
2023-04-21T06:46:14.356Z,42.37
2023-04-21T06:50:16.239Z,40.61
2023-04-21T06:54:17.553Z,38.79
2023-04-21T06:58:21.127Z,39.00
2023-04-21T07:02:23.018Z,38.22
2023-04-21T07:06:24.560Z,38.34
2023-04-21T07:10:26.914Z,37.97
2023-04-21T07:14:28.282Z,37.78
2023-04-21T07:18:29.905Z,36.96
2023-04-21T07:22:31.438Z,37.32
2023-04-21T07:26:34.201Z,35.78
2023-04-21T07:30:35.958Z,32.76
2023-04-21T07:34:37.391Z,32.58
2023-04-21T07:38:43.082Z,31.54
2023-04-21T07:42:44.462Z,32.30
2023-04-21T07:46:46.468Z,33.95
2023-04-21T07:50:47.887Z,35.06
2023-04-21T07:54:49.386Z,32.59
2023-04-21T07:58:50.812Z,32.46
2023-04-21T08:02:52.600Z,33.59
2023-04-21T08:06:54.338Z,33.13
2023-04-21T08:10:56.070Z,34.59
2023-04-21T08:14:57.482Z,35.23
2023-04-21T08:18:58.983Z,33.04
2023-04-21T08:23:00.552Z,32.78
2023-04-21T08:27:02.243Z,32.88
2023-04-21T08:31:04.817Z,34.37
2023-04-21T08:35:06.941Z,32.92
2023-04-21T08:39:08.673Z,32.54
2023-04-21T08:43:15.766Z,32.75
2023-04-21T08:47:17.973Z,33.25
2023-04-21T08:51:24.599Z,33.81
2023-04-21T08:55:29.468Z,31.16
2023-04-21T08:59:32.200Z,29.73
2023-04-21T09:03:33.825Z,29.47
2023-04-21T09:07:39.066Z,29.27
2023-04-21T09:11:54.343Z,29.52
2023-04-21T09:16:00.958Z,26.53
2023-04-21T09:20:20.153Z,27.39
2023-04-21T09:24:21.834Z,27.49
2023-04-21T09:28:36.058Z,28.15
2023-04-21T09:32:39.383Z,31.12
2023-04-21T09:36:40.787Z,28.67
2023-04-21T09:40:42.161Z,29.17
2023-04-21T09:44:52.504Z,31.98
2023-04-21T09:49:00.761Z,27.31
2023-04-21T09:53:07.775Z,27.42
2023-04-21T09:57:12.297Z,22.71
2023-04-21T10:01:15.493Z,23.47
2023-04-21T10:05:17.205Z,24.67
2023-04-21T10:09:22.681Z,26.26
2023-04-21T10:13:25.446Z,26.99
2023-04-21T10:17:27.019Z,28.07
2023-04-21T10:21:28.584Z,25.00
2023-04-21T10:25:30.113Z,25.14
2023-04-21T10:29:47.808Z,27.24
2023-04-21T10:34:13.095Z,26.52
2023-04-21T10:38:34.648Z,28.79
2023-04-21T10:42:37.233Z,23.64
2023-04-21T10:46:49.913Z,23.95
2023-04-21T10:50:51.893Z,25.50
2023-04-21T10:54:56.096Z,26.20
2023-04-21T10:58:59.529Z,22.83
2023-04-21T11:03:03.507Z,21.16
2023-04-21T11:07:12.393Z,23.66
2023-04-21T11:11:23.533Z,21.72
2023-04-21T11:15:25.896Z,23.15
2023-04-21T11:19:27.673Z,22.93
2023-04-21T11:23:29.099Z,21.52
2023-04-21T11:27:30.866Z,20.76
2023-04-21T11:31:32.564Z,19.90
2023-04-21T11:35:34.027Z,18.95
2023-04-21T11:39:35.489Z,18.56
2023-04-21T11:43:37.538Z,21.23
2023-04-21T11:47:40.032Z,20.67
2023-04-21T11:51:43.389Z,20.39
2023-04-21T11:55:47.972Z,23.30
2023-04-21T11:59:49.567Z,23.36
2023-04-21T12:03:52.924Z,24.32
2023-04-21T12:07:56.343Z,25.84
2023-04-21T12:11:59.165Z,25.09
2023-04-21T12:16:03.478Z,24.59
2023-04-21T12:20:09.002Z,22.44
2023-04-21T12:24:10.663Z,23.11
2023-04-21T12:28:12.427Z,23.28
2023-04-21T12:32:15.216Z,24.14
2023-04-21T12:36:17.189Z,23.71
2023-04-21T12:40:18.764Z,27.59
2023-04-21T12:44:23.233Z,26.01
2023-04-21T12:48:24.559Z,29.55
2023-04-21T12:52:26.880Z,28.81
2023-04-21T12:56:28.447Z,27.17
2023-04-21T13:00:29.861Z,27.10
2023-04-21T13:04:32.271Z,29.59
2023-04-21T13:08:34.238Z,27.74
2023-04-21T13:12:35.821Z,27.11
2023-04-21T13:16:37.527Z,27.59
2023-04-21T13:20:38.915Z,28.26
2023-04-21T13:24:40.318Z,27.27
2023-04-21T13:28:41.786Z,28.06
2023-04-21T13:32:43.715Z,30.01
2023-04-21T13:36:46.913Z,28.18
2023-04-21T13:40:49.185Z,29.24
2023-04-21T13:44:53.137Z,27.66
2023-04-21T13:48:55.725Z,29.21
2023-04-21T13:52:57.170Z,29.21
2023-04-21T13:56:58.688Z,30.19
2023-04-21T14:01:03.938Z,29.68
2023-04-21T14:05:05.669Z,29.84
2023-04-21T14:09:08.852Z,28.32
2023-04-21T14:13:17.281Z,27.31
2023-04-21T14:17:25.460Z,27.41
2023-04-21T14:21:26.958Z,27.65
2023-04-21T14:25:28.627Z,27.31
2023-04-21T14:29:30.014Z,27.26
2023-04-21T14:33:33.142Z,27.03
2023-04-21T14:37:34.679Z,27.13
2023-04-21T14:41:36.136Z,27.72
2023-04-21T14:45:37.537Z,27.50
2023-04-21T14:49:39.117Z,25.78
2023-04-21T14:53:40.763Z,25.31
2023-04-21T15:02:04.242Z,25.72
2023-04-21T15:06:06.492Z,25.44
2023-04-21T15:10:09.023Z,26.66
2023-04-21T15:14:10.698Z,25.68
2023-04-21T15:18:12.407Z,24.36
2023-04-21T15:22:15.131Z,24.99
2023-04-21T15:26:16.816Z,25.32
2023-04-21T15:30:18.364Z,26.06
2023-04-21T15:34:19.794Z,24.92
2023-04-21T15:38:21.299Z,25.97
2023-04-21T15:42:23.551Z,26.68
2023-04-21T15:46:24.900Z,25.95
2023-04-21T15:50:26.527Z,24.91
2023-04-21T15:54:27.977Z,24.98
2023-04-21T15:58:29.710Z,24.92
2023-04-21T16:02:31.832Z,24.84
2023-04-21T16:06:33.500Z,24.43
2023-04-21T16:10:35.045Z,24.81
2023-04-21T16:14:53.614Z,25.13
2023-04-21T16:18:58.685Z,24.36
2023-04-21T16:23:00.200Z,25.72
2023-04-21T16:27:02.827Z,24.57
2023-04-21T16:31:04.464Z,25.19
2023-04-21T16:35:08.103Z,25.07
2023-04-21T16:39:09.765Z,25.87
2023-04-21T16:43:11.257Z,25.05
2023-04-21T16:47:13.035Z,24.34
2023-04-21T16:51:14.595Z,24.82
2023-04-21T16:55:18.614Z,24.36
2023-04-21T16:59:21.252Z,25.19
2023-04-21T17:03:22.933Z,26.03
2023-04-21T17:07:24.532Z,26.18
2023-04-21T17:11:27.729Z,26.13
2023-04-21T17:15:29.514Z,25.78
2023-04-21T17:19:32.348Z,27.07
2023-04-21T17:23:33.802Z,26.47
2023-04-21T17:27:36.573Z,26.44
2023-04-21T17:31:38.044Z,26.88
2023-04-21T17:35:41.620Z,26.75
2023-04-21T17:39:50.458Z,26.21
2023-04-21T17:43:52.623Z,26.75
2023-04-21T17:47:54.065Z,26.41
2023-04-21T17:51:55.498Z,26.86
2023-04-21T17:55:57.174Z,27.03
2023-04-21T17:59:58.648Z,26.90
2023-04-21T18:04:01.184Z,27.16
2023-04-21T18:08:03.145Z,26.97
2023-04-21T18:12:04.887Z,27.31
2023-04-21T18:16:06.801Z,27.76
2023-04-21T18:20:09.043Z,27.54
2023-04-21T18:24:10.552Z,27.97
2023-04-21T18:28:12.542Z,28.05
2023-04-21T18:32:14.533Z,29.37
2023-04-21T18:36:15.936Z,28.68
2023-04-21T18:40:18.572Z,28.77
2023-04-21T18:44:19.978Z,29.40
2023-04-21T18:48:21.317Z,29.00
2023-04-21T18:52:23.716Z,30.42
2023-04-21T18:56:28.562Z,31.96
2023-04-21T19:00:31.759Z,34.01
2023-04-21T19:04:33.568Z,36.25
2023-04-21T19:08:41.958Z,37.32
2023-04-21T19:12:44.340Z,40.73
2023-04-21T19:16:48.813Z,40.22
2023-04-21T19:20:50.228Z,39.89
2023-04-21T19:24:51.627Z,40.31
2023-04-21T19:28:52.978Z,40.05
2023-04-21T19:32:55.126Z,39.85
2023-04-21T19:36:56.576Z,40.95
2023-04-21T19:40:57.978Z,40.46
2023-04-21T19:44:59.338Z,40.85
2023-04-21T19:49:00.694Z,40.82
2023-04-21T19:53:02.306Z,40.20
2023-04-21T19:57:03.638Z,40.31
2023-04-21T20:01:05.463Z,40.00
2023-04-21T20:05:07.898Z,40.42
2023-04-21T20:09:10.280Z,40.87
2023-04-21T20:13:12.916Z,40.36
2023-04-21T20:17:14.219Z,39.67
2023-04-21T20:21:16.725Z,40.09
2023-04-21T20:25:18.868Z,40.66
2023-04-21T20:29:20.309Z,40.57
2023-04-21T20:33:21.684Z,41.16
2023-04-21T20:37:23.094Z,41.88
2023-04-21T20:41:27.021Z,42.92
2023-04-21T20:45:29.486Z,41.79
2023-04-21T20:49:31.602Z,41.15
2023-04-21T20:53:33.010Z,40.31
2023-04-21T20:57:34.469Z,39.74
2023-04-21T21:01:39.002Z,39.89
2023-04-21T21:05:40.831Z,39.74
2023-04-21T21:09:42.111Z,40.44
2023-04-21T21:13:43.397Z,40.15
2023-04-21T21:17:45.088Z,40.51
2023-04-21T21:21:46.467Z,40.80
2023-04-21T21:25:50.844Z,41.07
2023-04-21T21:29:52.223Z,41.25
2023-04-21T21:33:58.163Z,41.49
2023-04-21T21:37:59.537Z,41.96
2023-04-21T21:42:01.260Z,42.17
2023-04-21T21:46:02.617Z,42.36
2023-04-21T21:50:04.194Z,43.50
2023-04-21T21:54:06.508Z,43.41
2023-04-21T21:58:07.976Z,43.42
2023-04-21T22:02:09.551Z,43.20
2023-04-21T22:06:12.938Z,43.63
2023-04-21T22:10:15.675Z,43.22
2023-04-21T22:14:23.269Z,43.59
2023-04-21T22:18:25.479Z,43.60
2023-04-21T22:22:27.024Z,44.02
2023-04-21T22:26:28.401Z,44.20
2023-04-21T22:30:29.846Z,44.02
2023-04-21T22:34:31.248Z,44.10
2023-04-21T22:38:32.591Z,44.41
2023-04-21T22:42:34.097Z,44.22
2023-04-21T22:46:36.296Z,44.16
2023-04-21T22:50:38.026Z,44.30
2023-04-21T22:54:41.036Z,44.66
2023-04-21T22:58:42.935Z,44.69
2023-04-21T23:02:44.376Z,44.41
2023-04-21T23:06:45.766Z,44.31
2023-04-21T23:10:47.578Z,44.50
2023-04-21T23:14:48.958Z,44.53
2023-04-21T23:18:50.292Z,46.31
2023-04-21T23:22:58.810Z,45.82
2023-04-21T23:27:00.885Z,45.55
2023-04-21T23:31:02.564Z,47.08
2023-04-21T23:35:04.247Z,46.87
2023-04-21T23:39:06.223Z,45.78
2023-04-21T23:43:07.628Z,45.97
2023-04-21T23:47:08.986Z,45.00
2023-04-21T23:51:10.675Z,45.10
2023-04-21T23:55:12.182Z,44.80
2023-04-21T23:59:13.482Z,45.15
